SBOSBO FNC / LPMA
Speedbird OnlineSpeedbird Online FNC / LPMA

Madeira Airport
01:14 19.2°C

Location Funchal, Portugal
Latitude: 32.697899
Longitude: -16.7745
Local Time 01:14 on 26 May 2024
UTC +1 hours (Europe/Lisbon)
Currency £1 equals EUR 1.17
METAR LPMA 252330Z 32003KT 260V030 9999 FEW015 19/16 Q1022
TAF TAF LPMA 252300Z 2600/2624 VRB05KT 9999 SCT015 TEMPO 2600/2624 BKN015 PROB30 TEMPO 2600/2612 6000 -RA BKN013 BECMG 2608/2610 02012KT
Weather As Of 26 May 2024 01:14
Description Few clouds
Wind 6 km/h from North-West (320°)
Cloud Cover 20%
Precipitation Rain: none, Snow: none
Sunrise 07:02
Sunset 21:06
NOTAM 3 active NOTAM
Rotations During the last 90 days there were
75 flights from LHR
70 flights to LHR
Lounges ANA Airport Lounge, Main Terminal
Web Airport Website | Wikipedia
Codes IATA: FNC
ICAO: LPMA
Altitude 59 Meter / 192 Feet
Distance 2,501 KM / 1,554 Miles
from London.
Runways
RunwayLength (m)Surface
052777Asphalt
232777Asphalt
Radio
TypeDescriptionFrequency
APPAPP119.2
TWRTWR118.35
Live ATC



Support Speedbird Online

© 2017-2024 Speedbird Online